The University of Tennessee Institute of Agriculture
Tmail  /  Online@UT  /  A-Z Index

Biosystems Engineering & Soil Science


West Tennessee, Cotton farm, Haywood County, daily data

Show metric units       Show half-hour records
Date Solar rad
mJ/m2
Precip
(in)
Air temp
(deg F)
Max Min Avg
Rel humid (%)
Max Min Avg
Avg
windspeed
(mi/hr)
Soil temp
6" (deg F)
Max Min Avg
Soil temp
12" (deg F)
Max Min Avg
Evap.
trans.
(in)
1/1/17 2.0 0.0150  45  47100  1  23250  50  5032  32  32--
1/2/17 2.5 0.5364  48  56100  1  50350  50  5032  32  320.03
1/3/17 2.4 0.2259  45  55100  1  9452  50  5132  32  320.04
1/4/17 9.7 045  28  34100  49  72552  52  5232  32  32--
1/5/17 2.6 030  27  2975  64  70452  50  5132  32  32--
1/6/17 5.8 027  18  20100  60  79650  48  4932  32  32--
1/7/17 11.7 021  9  1581  48  60448  46  4732  32  32--
1/8/17 6.8 0.0227  5  1798  49  72146  45  4632  32  32--
1/9/17 11.1 0.0246  16  3279  37  55345  45  4532  32  32--
1/10/17 2.1 063  45  5488  55  73845  45  4532  32  320.02
1/11/17 3.8 0.4170  57  63100  1  43646  45  4632  32  320.04
1/12/17 3.0 072  48  6687  65  76750  46  4832  32  320.03
1/13/17 2.3 048  41  44100  1  36450  50  5032  32  32--
1/14/17 2.5 0.0448  43  4499  0  11250  50  5032  32  32--
1/15/17 4.5 0.0154  41  45100  0  21350  50  5032  32  32--
1/16/17 4.2 0.1968  46  58100  0  53450  50  5032  32  320.04
1/17/17 4.9 0.9564  46  56100  0  70552  50  5132  32  320.04
1/18/17 5.1 052  37  46100  0  71252  52  5232  32  32--
1/19/17 1.3 0.5763  48  55100  0  7352  52  5232  32  320.03
1/20/17 6.5 066  55  59100  0  46552  52  5232  32  320.06
1/21/17 9.7 072  57  6381  45  65354  52  5332  32  320.08
1/22/17 2.8 0.0959  54  56100  1  46354  54  5432  32  320.03
1/23/17 7.2 054  41  46100  66  81754  54  5432  32  32--
1/24/17 12.6 059  28  44100  0  45254  52  5332  32  32--
1/25/17 8.2 068  48  5780  39  62552  52  5232  32  320.06
1/26/17 9.4 050  32  3977  44  61652  52  5232  32  32--
1/27/17 13.3 046  30  3869  36  54552  50  5232  32  32--
1/28/17 13.3 048  32  3971  38  53550  50  5032  32  32--
1/29/17 5.9 048  34  4278  39  58450  50  5032  32  32--
1/30/17 13.1 059  32  4381  37  61350  48  4932  32  32--
1/31/17 12.8 070  43  5573  18  47248  48  4832  32  320.09
2/1/17 5.8 061  46  5583  39  64350  48  5032  32  320.04
2/2/17 4.1 052  36  4169  41  54650  50  5032  32  32--
2/3/17 11.9 041  28  3553  29  44550  48  5032  32  32--
2/4/17 12.4 050  19  3568  19  44348  48  4832  32  32--
2/5/17 13.8 063  37  49100  43  67348  48  4832  32  32--
2/6/17 4.3 0.1170  50  58100  1  56548  48  4832  32  320.04
2/7/17 7.1 1.0475  55  65100  1  69650  48  5032  32  320.06
2/8/17 8.7 066  36  53100  1  70452  50  5232  32  320.06
2/9/17 14.4 041  28  3477  41  63552  52  5232  32  32--
2/10/17 14.1 068  27  4682  18  47552  50  5032  32  32--
2/11/17 6.2 075  61  6879  45  68650  50  5032  32  320.06
2/12/17 5.7 072  50  63100  37  70652  50  5232  32  320.05
2/13/17 13.8 054  34  4561  26  43352  52  5232  32  32--
2/14/17 2.3 0.1645  41  43100  52  68352  52  5232  32  32--
2/15/17 15.1 0.4748  37  43100  1  44552  50  5132  32  32--
2/16/17 16.1 063  30  45100  20  58250  50  5032  32  32--
2/17/17 15.9 070  43  5565  25  46350  50  5032  32  320.11
2/18/17 8.4 0.1863  48  55100  1  58250  50  5032  32  320.06
2/19/17 15.9 075  46  59100  1  41252  50  5132  32  320.12
2/20/17 12.6 079  54  6482  41  63452  52  5232  32  320.10
2/21/17 3.1 0.2264  57  61100  1  40454  52  5332  32  320.04
2/22/17 11.5 072  55  6392  1  37354  54  5432  32  320.10
2/23/17 14.7 077  52  64100  1  42355  54  5432  32  320.12
2/24/17 9.6 073  57  6582  48  70755  55  5532  32  320.08
2/25/17 17.9 055  34  4161  33  48655  55  5532  32  32--
2/26/17 16.1 059  25  4288  20  53255  54  5432  32  32--
2/27/17 17.0 0.2466  46  56100  36  70454  54  5432  32  320.11
2/28/17 3.3 0.0172  55  64100  1  59554  54  5432  32  320.04
3/1/17 14.0 0.4572  48  63100  1  53855  54  5432  32  320.11
3/2/17 18.7 055  36  4678  21  45355  55  5532  32  32--
3/3/17 18.5 052  36  4480  27  49355  54  5432  32  32--
3/4/17 17.6 068  34  5176  18  41354  52  5332  32  320.11
3/5/17 5.8 0.0355  45  5184  36  60452  52  5232  32  320.04
3/6/17 6.1 0.0970  52  61100  1  64654  52  5232  32  320.05
3/7/17 10.5 1.0768  46  5785  1  55654  54  5432  32  320.07
3/8/17 19.3 070  39  5374  19  47254  54  5432  32  320.12
3/9/17 17.6 0.0277  41  5996  34  53454  54  5432  32  320.12
3/10/17 19.6 0.6566  41  5195  1  43654  54  5432  32  320.12
3/11/17 3.3 0.1541  30  36100  1  53354  54  5432  32  32--
3/12/17 19.4 0.1850  27  37100  0  46254  52  5332  32  32--
3/13/17 3.7 0.1043  32  38100  1  74352  52  5232  32  32--
3/14/17 6.0 039  32  36100  1  67652  50  5032  32  32--
3/15/17 20.6 039  23  3173  33  57450  50  5032  32  32--
3/16/17 10.3 052  25  3980  26  50250  48  4832  32  32--
3/17/17 6.7 0.6666  45  5688  1  60548  48  4832  32  320.05
3/18/17 21.0 0.7366  52  6086  1  25450  48  5032  32  320.19
3/19/17 11.6 061  37  5194  38  57252  50  5232  32  320.07
3/20/17 20.1 084  52  6861  40  49552  52  5232  32  320.16
3/21/17 11.4 073  55  6586  63  75454  52  5332  32  320.09
3/22/17 18.1 0.3161  46  53100  29  61554  54  5432  32  320.11
3/23/17 18.1 079  45  5955  29  42354  54  5432  32  320.14
3/24/17 12.2 075  63  6980  53  64555  54  5432  32  320.10
3/25/17 6.1 0.2068  57  63100  1  66555  55  5532  32  320.05
3/26/17 16.6 0.1473  57  63100  1  38355  55  5532  32  320.15
3/27/17 9.7 0.4975  55  6390  1  55357  55  5732  32  320.08
3/28/17 21.9 0.0172  54  6294  1  38257  57  5732  32  320.18
3/29/17 18.0 084  55  6995  1  53457  57  5732  32  320.14
3/30/17 10.5 0.1373  55  6798  55  65759  57  5832  32  320.09
3/31/17 18.9 066  50  5779  52  67559  57  5932  32  320.12
4/1/17 20.6 064  45  5497  54  74359  57  5832  32  320.13
4/2/17 19.0 0.1279  46  6299  35  63357  57  5732  32  320.14
4/3/17 8.6 0.3072  61  65100  54  78759  57  5732  32  320.07
4/4/17 22.5 082  55  68100  31  61259  59  5932  32  320.17
4/5/17 15.4 0.0173  50  6482  46  62759  59  5932  32  320.12
4/6/17 21.1 0.0164  46  5375  27  49959  57  5932  32  320.13
4/7/17 24.6 063  41  5270  23  45457  57  5732  32  320.15
4/8/17 23.5 075  37  5886  22  45357  57  5732  32  320.16
4/9/17 23.0 081  54  6759  32  45557  57  5732  32  320.19
4/10/17 18.0 077  61  6872  46  57557  57  5732  32  320.14
4/11/17 5.4 0.0570  57  65100  1  64359  57  5832  32  320.05
4/12/17 23.4 0.0177  50  6381  1  35259  59  5932  32  320.20
4/13/17 23.7 086  52  7087  31  54259  59  5932  32  320.18
4/14/17 14.6 086  61  7378  34  56259  59  5932  32  320.12
4/15/17 20.1 082  59  7383  35  53361  59  6032  32  320.16
4/16/17 16.4 081  64  7283  53  68461  61  6132  32  320.13
4/17/17 11.3 077  63  69100  1  80261  61  6132  32  320.09
4/18/17 12.3 0.6879  63  6899  1  34261  61  6132  32  320.12
4/19/17 21.7 086  61  7387  1  36363  61  6332  32  320.21
4/20/17 15.7 0.0881  64  7384  60  72363  63  6332  32  320.13
4/21/17 8.5 0.3972  57  64100  1  30363  63  6332  32  320.09
4/22/17 4.2 1.4457  52  5422  1  2463  61  6232  32  320.06
4/23/17 5.5 0.4055  46  51100  1  28463  61  6132  32  320.05
4/24/17 22.5 075  48  5992  1  44261  59  6132  32  320.16
4/25/17 25.7 081  54  6795  1  36361  61  6132  32  320.23
4/26/17 20.1 0.8981  61  7086  1  62563  61  6132  32  320.16
4/27/17 19.2 0.2568  48  58100  1  46463  61  6232  32  320.13
4/28/17 11.9 084  52  6794  1  44361  61  6132  32  320.10
4/29/17 20.4 088  73  8080  50  67663  61  6132  32  320.18
4/30/17 4.1 0.5377  64  70100  1  34663  63  6332  32  320.05
5/1/17 14.1 066  52  5784  48  61663  63  6332  32  320.09
5/2/17 26.4 079  48  63100  1  43363  61  6232  32  320.21
5/3/17 15.2 077  55  6695  45  67261  61  6132  32  320.12
5/4/17 5.6 0.2566  48  5682  1  11563  61  6232  32  320.07
5/5/17 23.7 0.2566  46  5579  0  27663  61  6132  32  320.19
5/6/17 25.2 079  48  6285  37  60561  61  6132  32  320.18
5/7/17 27.4 075  46  6299  1  50161  61  6132  32  320.19
5/8/17 25.9 084  52  6986  38  59261  61  6132  32  320.20
5/9/17 26.2 084  61  7482  37  59361  61  6132  32  320.21
5/10/17 18.1 084  64  7480  49  65363  61  6232  32  320.15
5/11/17 20.9 086  68  7590  50  69363  63  6332  32  320.17
5/12/17 10.6 0.5573  63  66100  1  47364  63  6332  32  320.09
5/13/17 27.5 077  55  6698  1  46364  63  6432  32  320.21
5/14/17 27.4 084  52  6987  1  42164  63  6432  32  320.23
5/15/17 27.2 086  57  7286  1  41164  63  6332  32  320.24
5/16/17 23.5 088  61  75100  1  50364  63  6432  32  320.19
5/17/17 22.5 086  68  7773  44  59564  64  6432  32  320.19
5/18/17 25.6 088  72  7976  43  60566  64  6432  32  320.22
5/19/17 8.0 0.6582  70  7495  1  21266  66  6632  32  320.11
5/20/17 14.5 0.0581  68  74100  1  55366  66  6632  32  320.12
5/21/17 21.9 077  64  71100  1  36366  66  6632  32  320.21
5/22/17 19.1 075  57  6688  44  65166  66  6632  32  320.14
5/23/17 20.7 079  61  69100  1  38266  66  6632  32  320.19
5/24/17 16.6 0.3168  55  6290  1  43466  66  6632  32  320.13
5/25/17 28.0 077  52  6499  1  45466  64  6632  32  320.21
5/26/17 23.9 086  59  7383  38  62464  64  6432  32  320.19
5/27/17 14.8 0.4888  64  7795  58  74466  64  6632  32  320.13
5/28/17 17.3 1.5077  63  6888  1  33568  66  6732  32  320.17
5/29/17 26.0 084  64  7579  1  31266  66  6632  32  320.27
5/30/17 24.7 0.1188  66  7488  1  46368  66  6732  32  320.21
5/31/17 24.6 088  61  7390  1  35268  68  6832  32  320.24
6/1/17 17.8 086  66  7580  1  41168  68  6832  32  320.17
6/2/17 22.0 088  63  7492  1  51168  68  6832  32  320.18
6/3/17 19.5 0.0384  64  7483  1  40268  68  6832  32  320.19
6/4/17 10.9 0.8179  70  74100  1  24268  68  6832  32  320.13
6/5/17 16.9 0.0182  70  7586  1  38270  68  6932  32  320.17
6/6/17 21.7 086  68  7687  1  40270  70  7032  32  320.21
6/7/17 27.2 082  59  7292  1  55370  70  7032  32  320.21
6/8/17 27.3 077  57  6892  1  52270  68  6932  32  320.21
6/9/17 28.8 084  55  7190  1  47170  68  6832  32  320.23
6/10/17 26.4 086  59  7489  1  56368  68  6832  32  320.21
6/11/17 26.1 090  64  7887  1  53368  68  6832  32  320.22
6/12/17 22.0 090  72  8086  1  69370  68  6832  32  320.19
6/13/17 26.3 091  72  8192  1  50270  70  7032  32  320.22
6/14/17 25.0 091  72  8291  1  49370  70  7032  32  320.22
6/15/17 15.6 0.0988  72  7894  1  36272  70  7132  32  320.16
6/16/17 19.5 0.0291  70  7689  1  22272  72  7232  32  320.23
6/17/17 23.2 090  64  7780  1  41372  72  7232  32  320.22
6/18/17 12.7 0.1088  72  7889  1  34372  72  7232  32  320.14
6/19/17 25.8 0.0188  70  7787  1  34272  72  7232  32  320.26
6/20/17 27.0 090  63  7787  1  42172  72  7232  32  320.25
6/21/17 22.2 086  64  7694  1  53372  72  7232  32  320.18
6/22/17 16.2 0.1488  72  7885  1  39572  72  7232  32  320.16
6/23/17 10.1 1.7684  70  76100  1  18672  72  7232  32  320.13
6/24/17 25.8 081  66  7382  1  40372  72  7232  32  320.24
6/25/17 28.3 084  61  7393  1  46272  72  7232  32  320.24
6/26/17 22.9 084  63  7190  1  54172  70  7132  32  320.18
6/27/17 24.9 0.0584  63  7188  1  53272  70  7132  32  320.20
6/28/17 26.8 088  63  7674  1  36370  70  7032  32  320.26
6/29/17 23.0 090  70  7887  1  61370  70  7032  32  320.19
6/30/17 15.1 086  72  7887  1  50472  72  7232  32  320.13
7/1/17 23.1 088  72  8085  1  45372  72  7232  32  320.21
7/2/17 23.5 088  72  7987  1  47272  72  7232  32  320.21
7/3/17 13.6 0.4584  70  7790  1  38272  72  7232  32  320.14
7/4/17 21.5 0.2588  70  7889  1  31372  72  7232  32  320.23
7/5/17 11.1 1.2281  70  7568  1  7272  72  7232  32  320.16
7/6/17 19.7 0.4486  72  7794  1  32372  72  7232  32  320.21
7/7/17 24.9 090  72  7988  1  34273  72  7332  32  320.26
7/8/17 25.0 0.0786  70  7885  1  49373  73  7332  32  320.21
7/9/17 27.7 091  66  7981  1  34173  73  7332  32  320.28
7/10/17 27.4 091  68  8086  1  45273  73  7332  32  320.25
7/11/17 26.4 091  68  8184  1  40173  73  7332  32  320.25
7/12/17 25.2 091  73  8388  1  53273  73  7332  32  320.22
7/13/17 25.6 093  75  8397  1  52273  73  7332  32  320.22
7/14/17 23.5 090  75  8188  1  46273  73  7332  32  320.21
7/15/17 22.5 088  70  7985  1  40275  73  7432  32  320.22
7/16/17 27.4 088  70  7982  1  35275  73  7432  32  320.28
7/17/17 27.4 091  64  7780  1  36173  73  7332  32  320.27
7/18/17 26.2 093  68  8190  1  49173  73  7332  32  320.23
7/19/17 23.8 093  70  8284  1  36173  73  7332  32  320.25
7/20/17 25.6 095  73  8493  1  42273  73  7332  32  320.25
7/21/17 21.6 097  73  8586  1  43175  73  7432  32  320.21
7/22/17 25.4 097  77  8684  1  40375  75  7532  32  320.26
7/23/17 21.6 0.3895  72  8396  1  66375  75  7532  32  320.19
7/24/17 21.4 0.0191  72  8082  1  37175  75  7532  32  320.22
7/25/17 22.8 095  72  8383  1  38175  75  7532  32  320.23
7/26/17 23.5 095  73  8486  1  40275  75  7532  32  320.24
7/27/17 16.3 0.1891  73  8093  1  57375  75  7532  32  320.14
7/28/17 15.7 0.0188  73  8083  1  34275  75  7532  32  320.17
7/29/17 24.7 082  70  7684  1  46375  75  7532  32  320.21
7/30/17 26.6 084  61  7385  1  50275  75  7532  32  320.21
7/31/17 25.7 088  59  7493  1  43175  73  7432  32  320.23
8/1/17 9.2 084  66  7487  1  49173  73  7332  32  320.09
8/2/17 22.9 086  70  7787  1  35273  73  7332  32  320.23
8/3/17 19.3 088  66  7774  1  38273  73  7332  32  320.19
8/4/17 18.9 0.6382  68  7587  1  44273  73  7332  32  320.17
8/5/17 25.2 084  55  7098  1  43273  73  7332  32  320.22
8/6/17 15.0 0.2188  64  7582  1  53373  73  7332  32  320.13
8/7/17 9.0 0.0277  70  7396  1  15373  73  7332  32  320.12
8/8/17 22.1 0.0186  68  7583  1  36273  73  7332  32  320.22
8/9/17 23.7 086  63  7588  1  42273  73  7332  32  320.22
8/10/17 24.2 090  66  7884  1  35173  73  7332  32  320.25
8/11/17 11.9 0.0486  68  7588  1  30273  73  7332  32  320.14
8/12/17 17.8 084  68  7584  1  32273  73  7332  32  320.19
8/13/17 11.1 081  66  7387  1  33173  73  7332  32  320.12
8/14/17 8.3 0.8584  70  7488  1  11273  73  7332  32  320.12
8/15/17 11.6 0.7186  70  7585  1  16173  73  7332  32  320.15
8/16/17 19.0 090  72  8083  1  34373  73  7332  32  320.20
8/17/17 10.6 0.5586  73  7881  1  14375  73  7432  32  320.15
8/18/17 24.6 090  70  7882  1  31275  75  7532  32  320.26
8/19/17 22.2 091  68  7997  1  46275  75  7532  32  320.20
8/20/17 14.1 093  70  8186  1  36175  75  7532  32  320.15
8/21/17 19.6 093  72  8284  1  41175  75  7532  32  320.20
8/22/17 21.1 091  73  8184  1  36375  75  7532  32  320.22
8/23/17 18.0 081  63  7485  1  38275  75  7532  32  320.17
8/24/17 24.1 082  57  7075  1  32275  75  7532  32  320.24
8/25/17 21.0 084  59  7184  1  42275  73  7432  32  320.19
8/26/17 18.5 086  63  7395  52  73273  73  7332  32  320.15
8/27/17 18.4 088  66  7684  45  69273  73  7332  32  320.15
8/28/17 5.9 0.0781  66  7190  1  33173  73  7332  32  320.07
8/29/17 20.5 084  61  7383  1  36173  73  7332  32  320.20
8/30/17 8.0 0.0481  66  7199  1  25273  73  7332  32  320.10
8/31/17 6.5 4.1884  64  7181  1  11475  70  7332  32  320.10
9/1/17 15.7 0.7877  64  6983  1  27572  70  7132  32  320.17
9/2/17 19.0 079  59  6886  1  30172  72  7232  32  320.19
9/3/17 21.5 086  61  7382  1  37272  72  7232  32  320.21
9/4/17 19.3 088  66  77100  57  75372  72  7232  32  320.16
9/5/17 11.1 0.0275  59  7188  1  48373  72  7232  32  320.10
9/6/17 20.5 073  55  6387  1  30273  72  7232  32  320.19
9/7/17Incomplete records (47) were available today.
9/8/17 21.4 079  50  6599  37  69170  70  7032  32  320.16
9/9/17 21.4 082  54  6799  38  69270  70  7032  32  320.16
9/10/17 21.7 079  57  6796  39  66270  70  7032  32  320.16
9/11/17 13.5 073  54  6496  47  71370  70  7032  32  320.10
9/12/17 2.2 0.7664  57  6099  67  95470  68  6932  32  320.03
9/13/17 4.3 0.1068  61  6499  85  95268  68  6832  32  320.04
9/14/17 20.3 086  63  7397  48  76268  68  6832  32  320.17
9/15/17 18.5 088  64  7597  45  77170  68  6832  32  320.15
9/16/17 18.5 091  66  7898  43  75270  70  7032  32  320.16
9/17/17 19.1 091  68  78100  46  78170  70  7032  32  320.16
9/18/17 18.7 091  68  78100  44  80172  70  7132  32  320.16
9/19/17 19.1 090  70  78100  49  78272  72  7232  32  320.16
9/20/17 17.7 091  72  8095  49  75272  72  7232  32  320.16
9/21/17 18.0 093  70  81100  43  75173  72  7232  32  320.16
9/22/17 17.8 091  66  79100  42  75173  73  7332  32  320.15

 
Copyright ©2012 Biosystems Engineering & Soil Science · Webmaster · Disclaimer